Portada
METAR-TAF:

METAR-TAF

Aeroports :

Dawadmi, Aràbia Saudita

latitud: 24-26-59N, longitud: 044-07-16E, altitud: 922 m

Observació

L'informe es va fer fa 8 hores i 50 minuts, a les 21:00 UTC
Vent calma
Temperatura 26°C
Humitat 14%
Pressió 1014 hPa
Visibilitat 10 km o més
sense núvols per sota de 1500 mi sense presència de cumulonimbus.

METAR: OEDM 282100Z 00000KT CAVOK 26/M04 Q1014

Hora: 08:50 (05:50 UTC)

Pronòstic

L'informe es va fer fa 1 hora i 50 minuts, a les 04:00 UTC
Pronòstic vàlid del 29 a les 05 UTC al 29 a les 21 UTC
Vent 10 kt del Nord/Nord-Oest
Visibilitat 10 km o més
sense núvols per sota de 1500 mi sense presència de cumulonimbus.
Evolucionant progressivament
l' 29 a les 16 UTC al 29 a les 18 UTC
Vent 8 kt del Est/Nord-Est

TAF: OEDM 290400Z 2905/2921 33010KT CAVOK BECMG 2916/2918 07008KT

Observacions i pronòstics meteorològics de més de 4000 aeroports (METAR i TAF).

Les estacions disponibles són els punts grocs i vermells al mapa.

Posi el ratolí al punt desitjat per veure el nom de l'estació.

Feu clic per veure les observacions i els pronòstics meteorològics.

Per canviar el mapa: feu clic els botons verds amb una creu de color negre per apropar; al botó verd amb un guió per allunyar la imatge; o en les fletxes verdes per a mapes adjacents.


METAR-TAF: